Time;durP1;ratioP1;P1;durP2;ratioP2;P2;SDS_P1;SDS_P2;PMS_P1;PMS_P2;Temp;Humidity;BMP_temperature;BMP_pressure;BME280_temperature;BME280_humidity;BME280_pressure;Samples;Min_cycle;Max_cycle;Signal;HPM_P1;HPM_P2
2021/06/12 00:01:17;;;;;;;14.68;10.15;;;17.20;95.80;;;;;;5094982;28;20103;-77
2021/06/12 00:03:42;;;;;;;17.23;10.40;;;17.20;95.80;;;;;;5093553;28;20019;-77
2021/06/12 00:06:08;;;;;;;17.63;11.38;;;17.10;95.90;;;;;;5094845;28;20090;-77
2021/06/12 00:08:34;;;;;;;18.35;11.20;;;17.10;96.00;;;;;;5106523;28;20473;-76
2021/06/12 00:11:03;;;;;;;14.93;10.05;;;17.00;96.10;;;;;;5102236;28;20073;-76
2021/06/12 00:13:30;;;;;;;13.40;9.63;;;17.00;96.50;;;;;;5099432;28;20103;-78
2021/06/12 00:15:56;;;;;;;11.80;8.27;;;17.10;96.50;;;;;;5093896;28;20051;-77
2021/06/12 00:18:23;;;;;;;17.15;10.93;;;17.10;96.50;;;;;;5093486;28;20021;-77
2021/06/12 00:20:49;;;;;;;17.25;10.70;;;17.10;96.50;;;;;;5099981;28;20027;-79
2021/06/12 00:23:16;;;;;;;14.80;9.38;;;17.10;96.30;;;;;;5113602;28;20031;-77
2021/06/12 00:25:42;;;;;;;15.15;9.13;;;17.10;96.30;;;;;;5114737;28;20031;-77
2021/06/12 00:28:08;;;;;;;12.85;8.35;;;17.10;96.50;;;;;;5115053;28;20027;-76
2021/06/12 00:30:34;;;;;;;11.10;7.95;;;17.10;96.40;;;;;;5112912;28;20090;-77
2021/06/12 00:33:00;;;;;;;11.32;7.55;;;17.10;96.50;;;;;;5093892;28;20363;-77
2021/06/12 00:35:26;;;;;;;12.73;7.95;;;17.10;96.60;;;;;;5108504;28;20033;-77
2021/06/12 00:37:53;;;;;;;9.93;7.50;;;17.10;96.80;;;;;;5104288;28;20385;-77
2021/06/12 00:40:20;;;;;;;9.88;7.22;;;17.20;96.90;;;;;;5117624;28;20121;-76
2021/06/12 00:42:46;;;;;;;10.35;7.15;;;17.30;96.80;;;;;;5117522;28;20123;-78
2021/06/12 00:45:17;;;;;;;12.07;6.95;;;17.30;96.70;;;;;;5113844;28;20482;-78
2021/06/12 00:47:43;;;;;;;10.27;7.00;;;17.40;96.50;;;;;;5097624;28;20028;-76
2021/06/12 00:50:10;;;;;;;15.35;8.63;;;17.40;96.40;;;;;;5096595;28;20035;-77
2021/06/12 00:52:38;;;;;;;15.25;8.82;;;17.40;96.10;;;;;;5094620;28;20118;-77
2021/06/12 00:55:06;;;;;;;16.40;9.75;;;17.50;95.90;;;;;;5094696;28;20031;-77
2021/06/12 00:57:33;;;;;;;14.48;8.98;;;17.50;95.70;;;;;;5094009;28;20101;-77
2021/06/12 01:00:00;;;;;;;13.38;8.35;;;17.50;95.70;;;;;;5093686;28;20417;-77
2021/06/12 01:02:26;;;;;;;15.60;9.10;;;17.50;95.70;;;;;;5093418;28;20020;-81
2021/06/12 01:04:52;;;;;;;13.32;8.63;;;17.50;95.60;;;;;;5092594;28;20462;-79
2021/06/12 01:07:17;;;;;;;12.43;9.10;;;17.50;95.50;;;;;;5095474;28;20035;-78
2021/06/12 01:09:43;;;;;;;15.80;9.52;;;17.40;95.60;;;;;;5093774;28;20039;-78
2021/06/12 01:12:15;;;;;;;13.70;8.35;;;17.40;95.30;;;;;;5093274;28;20446;-77
2021/06/12 01:15:16;;;;;;;17.50;9.30;;;17.40;95.20;;;;;;5091469;28;20432;-77
2021/06/12 01:18:03;;;;;;;14.05;9.13;;;17.30;95.30;;;;;;5092225;28;20032;-77
2021/06/12 01:20:47;;;;;;;14.38;8.52;;;17.20;95.30;;;;;;5091545;28;20054;-77
2021/06/12 01:23:30;;;;;;;9.25;6.80;;;17.20;95.40;;;;;;5103491;28;20080;-78
2021/06/12 01:26:18;;;;;;;10.70;7.25;;;17.10;95.50;;;;;;5092283;28;20069;-78
2021/06/12 01:29:21;;;;;;;8.95;6.70;;;17.10;95.60;;;;;;5091411;28;20028;-78
2021/06/12 01:31:48;;;;;;;16.52;7.32;;;17.00;95.60;;;;;;5091897;28;20031;-77
2021/06/12 01:34:14;;;;;;;11.13;6.78;;;17.00;95.70;;;;;;5091744;28;20020;-77
2021/06/12 01:36:41;;;;;;;7.75;6.47;;;17.00;95.80;;;;;;5092732;28;20028;-77
2021/06/12 01:39:07;;;;;;;10.60;6.85;;;17.00;95.90;;;;;;5094634;28;20036;-77
2021/06/12 01:41:35;;;;;;;8.05;6.35;;;16.90;95.90;;;;;;5091905;28;20101;-77
2021/06/12 01:44:02;;;;;;;9.40;6.65;;;16.90;96.00;;;;;;5099748;28;20027;-77
2021/06/12 01:46:29;;;;;;;9.18;6.80;;;16.90;96.00;;;;;;5112977;28;20098;-77
2021/06/12 01:48:58;;;;;;;9.60;6.80;;;16.90;96.10;;;;;;5111603;28;20039;-77
2021/06/12 01:51:25;;;;;;;9.80;6.95;;;16.80;96.10;;;;;;5104659;28;20432;-77
2021/06/12 01:53:56;;;;;;;10.18;7.05;;;16.80;96.20;;;;;;5098002;28;20026;-77
2021/06/12 01:56:26;;;;;;;9.32;6.55;;;16.80;96.20;;;;;;5113214;28;20024;-77
2021/06/12 01:58:53;;;;;;;10.48;6.78;;;16.80;96.20;;;;;;5111050;28;20032;-79
2021/06/12 02:01:22;;;;;;;10.70;7.00;;;16.80;96.30;;;;;;5094930;28;20024;-77
2021/06/12 02:03:57;;;;;;;8.63;7.25;;;16.80;96.60;;;;;;5112920;28;20015;-77
2021/06/12 02:06:24;;;;;;;11.05;7.45;;;16.80;96.30;;;;;;5112400;28;20020;-77
2021/06/12 02:08:59;;;;;;;8.95;6.90;;;16.70;96.60;;;;;;5111538;28;20032;-77
2021/06/12 02:11:33;;;;;;;12.90;7.30;;;16.70;96.50;;;;;;5113242;28;20103;-77
2021/06/12 02:14:06;;;;;;;10.48;7.38;;;16.70;96.50;;;;;;5112664;28;20054;-77
2021/06/12 02:16:44;;;;;;;10.43;7.18;;;16.80;96.60;;;;;;5113189;28;20016;-77
2021/06/12 02:19:56;;;;;;;;;;;;;;;;;;;;;
2021/06/12 02:22:23;;;;;;;9.13;7.70;;;16.70;96.60;;;;;;5101764;28;20112;-77
2021/06/12 02:24:49;;;;;;;10.30;8.10;;;16.70;96.60;;;;;;5115704;28;20020;-77
2021/06/12 02:27:20;;;;;;;12.00;6.95;;;16.70;96.60;;;;;;5101248;28;20030;-76
2021/06/12 02:29:47;;;;;;;11.52;7.80;;;16.80;96.70;;;;;;5118083;28;20480;-76
2021/06/12 02:32:17;;;;;;;8.43;6.88;;;16.80;96.80;;;;;;5116581;28;20476;-77
2021/06/12 02:34:43;;;;;;;10.02;7.20;;;16.70;96.70;;;;;;5116144;28;20026;-77
2021/06/12 02:37:09;;;;;;;10.20;7.35;;;16.70;96.80;;;;;;5113911;28;20044;-77
2021/06/12 02:42:59;;;;;;;10.05;7.80;;;16.70;96.90;;;;;;5073106;28;20032;-78
2021/06/12 02:46:14;;;;;;;9.75;7.38;;;16.80;96.90;;;;;;5047127;28;20058;-77
2021/06/12 02:48:42;;;;;;;12.55;7.70;;;16.80;97.00;;;;;;5057639;28;20430;-77
2021/06/12 02:51:09;;;;;;;9.65;7.22;;;16.90;97.10;;;;;;5057337;28;20032;-77
2021/06/12 02:54:03;;;;;;;10.10;8.52;;;16.90;97.10;;;;;;5068180;28;20066;-77
2021/06/12 02:57:00;;;;;;;9.88;7.57;;;17.00;97.10;;;;;;5116071;28;20138;-77
2021/06/12 02:59:29;;;;;;;11.60;7.25;;;17.20;97.80;;;;;;5111138;28;20122;-77
2021/06/12 03:01:57;;;;;;;9.23;7.25;;;17.50;98.90;;;;;;5116105;28;20031;-77
2021/06/12 03:04:25;;;;;;;8.82;6.53;;;17.80;98.90;;;;;;5116203;27;20100;-77
2021/06/12 03:06:52;;;;;;;8.60;6.68;;;18.30;98.50;;;;;;5113737;28;20031;-77
2021/06/12 03:09:24;;;;;;;9.65;6.65;;;18.70;97.70;;;;;;5116250;28;20030;-77
2021/06/12 03:11:53;;;;;;;9.85;5.72;;;19.10;96.60;;;;;;5114351;28;20077;-78
2021/06/12 03:14:20;;;;;;;10.02;6.15;;;19.50;95.30;;;;;;5114950;28;20062;-77
2021/06/12 03:16:46;;;;;;;7.60;5.40;;;19.80;94.20;;;;;;5114128;28;20024;-77
2021/06/12 03:19:14;;;;;;;7.63;5.65;;;20.10;93.30;;;;;;5116146;28;20044;-77
2021/06/12 03:21:41;;;;;;;9.85;5.60;;;20.40;92.30;;;;;;5115955;28;20020;-77
2021/06/12 03:24:08;;;;;;;8.85;6.13;;;20.80;91.00;;;;;;5114289;28;20024;-77
2021/06/12 03:26:34;;;;;;;7.20;5.18;;;21.00;90.00;;;;;;5115358;28;20038;-77
2021/06/12 03:29:02;;;;;;;8.13;5.75;;;21.40;88.10;;;;;;5115570;28;20454;-77
2021/06/12 03:31:29;;;;;;;6.82;4.70;;;21.70;86.10;;;;;;5114601;28;20116;-76
2021/06/12 03:33:55;;;;;;;5.90;4.68;;;22.00;83.80;;;;;;5115634;27;20038;-77
2021/06/12 03:36:22;;;;;;;6.45;4.90;;;22.20;82.20;;;;;;5113832;28;20132;-77
2021/06/12 03:38:48;;;;;;;5.75;4.55;;;22.40;80.70;;;;;;5114748;28;20035;-78
2021/06/12 03:41:14;;;;;;;5.95;4.53;;;22.60;79.50;;;;;;5115562;28;20382;-77
2021/06/12 03:43:41;;;;;;;6.68;4.57;;;22.70;77.80;;;;;;5114633;28;20032;-76
2021/06/12 03:46:08;;;;;;;5.93;4.50;;;22.80;77.10;;;;;;5113920;28;20024;-78
2021/06/12 03:48:35;;;;;;;6.65;4.82;;;22.90;76.40;;;;;;5115747;27;20024;-76
2021/06/12 03:51:01;;;;;;;5.95;4.40;;;23.20;75.50;;;;;;5114176;28;20078;-77
2021/06/12 03:53:31;;;;;;;5.43;4.53;;;23.30;74.90;;;;;;5114963;28;20065;-79
2021/06/12 03:56:00;;;;;;;6.45;4.28;;;23.50;73.80;;;;;;5115694;28;20073;-78
2021/06/12 03:58:26;;;;;;;5.53;4.47;;;23.70;73.50;;;;;;5115015;28;20034;-79
2021/06/12 04:00:52;;;;;;;7.35;4.78;;;24.00;72.70;;;;;;5105264;28;20020;-78
2021/06/12 04:03:18;;;;;;;6.68;4.22;;;24.20;71.90;;;;;;5111421;28;20077;-77
2021/06/12 04:05:52;;;;;;;7.60;4.38;;;24.40;71.30;;;;;;5114232;28;20016;-77
2021/06/12 04:08:24;;;;;;;5.93;4.30;;;24.70;70.30;;;;;;5102427;28;20051;-77
2021/06/12 04:11:00;;;;;;;8.80;4.70;;;25.00;69.60;;;;;;5105610;28;20023;-77
2021/06/12 04:13:41;;;;;;;7.07;4.60;;;25.20;68.50;;;;;;5119628;28;20047;-77
2021/06/12 04:16:21;;;;;;;6.55;4.00;;;25.30;67.70;;;;;;5124486;28;20069;-77
2021/06/12 04:18:55;;;;;;;5.60;3.88;;;25.50;67.30;;;;;;5137425;28;20024;-77
2021/06/12 04:21:29;;;;;;;6.53;4.43;;;25.60;66.60;;;;;;5138307;28;20015;-77
2021/06/12 04:23:58;;;;;;;;;;;25.80;66.00;;;;;;5135019;28;20039;-77
2021/06/12 04:26:34;;;;;;;6.70;4.50;;;26.00;67.70;;;;;;5122617;28;20018;-77
2021/06/12 04:29:00;;;;;;;5.28;3.97;;;26.10;65.70;;;;;;5112824;28;20085;-77
2021/06/12 04:31:25;;;;;;;6.68;3.90;;;26.50;65.30;;;;;;5114778;28;20458;-76
2021/06/12 04:33:51;;;;;;;5.18;3.67;;;26.90;64.20;;;;;;5114208;28;20050;-77
2021/06/12 04:36:17;;;;;;;5.13;3.67;;;27.10;62.90;;;;;;5113608;28;20088;-77
2021/06/12 04:38:43;;;;;;;4.72;3.60;;;27.30;62.00;;;;;;5112469;28;20039;-77
2021/06/12 04:41:08;;;;;;;4.60;3.55;;;27.50;61.60;;;;;;5114139;28;20035;-77
2021/06/12 04:43:34;;;;;;;7.43;3.97;;;27.70;60.80;;;;;;5112898;28;20055;-76
2021/06/12 04:46:00;;;;;;;6.53;3.80;;;27.80;60.00;;;;;;5113879;28;20149;-76
2021/06/12 04:48:25;;;;;;;7.80;3.67;;;28.00;59.70;;;;;;5113936;28;20030;-81
2021/06/12 04:50:51;;;;;;;5.88;3.53;;;28.20;59.10;;;;;;5113594;28;20027;-77
2021/06/12 04:53:17;;;;;;;5.50;3.58;;;28.20;58.80;;;;;;5112656;28;20517;-76
2021/06/12 04:55:43;;;;;;;5.53;3.70;;;28.30;58.60;;;;;;5112859;28;20107;-77
2021/06/12 04:58:11;;;;;;;5.22;3.65;;;28.40;58.40;;;;;;5113548;28;20091;-77
2021/06/12 05:00:39;;;;;;;4.25;3.28;;;28.50;58.30;;;;;;5113923;28;20022;-76
2021/06/12 05:03:05;;;;;;;5.95;4.22;;;28.80;58.20;;;;;;5111623;28;20452;-77
2021/06/12 05:05:31;;;;;;;7.43;3.50;;;29.00;57.10;;;;;;5114100;28;20028;-75
2021/06/12 05:07:57;;;;;;;5.13;4.10;;;29.10;56.30;;;;;;5113752;28;20024;-75
2021/06/12 05:10:23;;;;;;;4.75;3.10;;;29.10;55.90;;;;;;5113831;28;20537;-76
2021/06/12 05:12:49;;;;;;;6.13;3.45;;;29.30;55.50;;;;;;5113216;28;20102;-75
2021/06/12 05:15:15;;;;;;;5.15;3.55;;;29.30;55.00;;;;;;5113169;28;20051;-76
2021/06/12 05:17:41;;;;;;;5.75;3.08;;;29.40;55.10;;;;;;5113752;28;20122;-75
2021/06/12 05:20:09;;;;;;;5.00;3.00;;;29.40;54.30;;;;;;5113112;28;20441;-76
2021/06/12 05:22:35;;;;;;;29.45;4.75;;;29.40;53.90;;;;;;5113130;28;20024;-76
2021/06/12 05:25:01;;;;;;;7.47;3.17;;;29.60;54.20;;;;;;5112482;28;20031;-78
2021/06/12 05:27:27;;;;;;;4.22;3.17;;;29.80;54.00;;;;;;5113215;28;20092;-76
2021/06/12 05:29:53;;;;;;;3.97;3.08;;;30.10;53.70;;;;;;5113896;28;20031;-76
2021/06/12 05:32:18;;;;;;;4.85;2.90;;;30.20;53.30;;;;;;5113488;28;20576;-76
2021/06/12 05:34:44;;;;;;;3.60;2.80;;;30.20;52.20;;;;;;5112182;28;20158;-76
2021/06/12 05:37:11;;;;;;;4.20;2.78;;;30.10;51.90;;;;;;5113127;28;20023;-76
2021/06/12 05:39:36;;;;;;;3.45;2.58;;;30.30;51.70;;;;;;5113574;28;20032;-76
2021/06/12 05:42:02;;;;;;;7.47;3.05;;;30.40;51.80;;;;;;5113987;28;20188;-75
2021/06/12 05:44:28;;;;;;;5.30;3.22;;;30.50;51.30;;;;;;5097822;28;20016;-76
2021/06/12 05:46:54;;;;;;;4.47;3.10;;;30.60;51.10;;;;;;5114079;28;20023;-76
2021/06/12 05:49:20;;;;;;;4.85;3.10;;;30.60;51.20;;;;;;5113976;28;20031;-75
2021/06/12 05:51:46;;;;;;;3.90;2.70;;;30.80;51.30;;;;;;5114306;28;20023;-75
2021/06/12 05:54:12;;;;;;;5.70;2.80;;;30.90;50.80;;;;;;5114237;28;20032;-75
2021/06/12 05:56:38;;;;;;;3.78;2.78;;;31.00;50.80;;;;;;5113476;28;20023;-75
2021/06/12 05:59:04;;;;;;;4.43;2.83;;;31.10;51.20;;;;;;5119679;28;20447;-75
2021/06/12 06:01:30;;;;;;;5.30;3.88;;;31.10;50.60;;;;;;5117370;28;20031;-76
2021/06/12 06:03:55;;;;;;;4.07;2.88;;;31.20;50.50;;;;;;5121485;28;20027;-75
2021/06/12 06:06:21;;;;;;;5.38;3.08;;;31.30;50.60;;;;;;5118809;28;20051;-75
2021/06/12 06:08:47;;;;;;;5.00;3.35;;;31.20;50.40;;;;;;5110465;28;20050;-77
2021/06/12 06:11:13;;;;;;;4.35;2.60;;;31.40;49.80;;;;;;5111618;28;20027;-76
2021/06/12 06:13:40;;;;;;;6.30;2.92;;;31.50;49.70;;;;;;5114809;28;20027;-76
2021/06/12 06:16:06;;;;;;;4.65;3.08;;;31.50;49.90;;;;;;5115600;28;20051;-76
2021/06/12 06:18:32;;;;;;;5.47;3.20;;;31.50;49.40;;;;;;5116012;28;20454;-76
2021/06/12 06:20:58;;;;;;;3.90;2.80;;;31.60;49.70;;;;;;5116829;28;20107;-76
2021/06/12 06:23:24;;;;;;;4.40;3.15;;;31.80;49.50;;;;;;5116928;28;20453;-77
2021/06/12 06:25:50;;;;;;;4.38;3.30;;;31.90;49.90;;;;;;5116383;28;20038;-76
2021/06/12 06:28:16;;;;;;;3.97;3.15;;;32.10;49.30;;;;;;5115812;28;20511;-76
2021/06/12 06:30:42;;;;;;;4.35;2.95;;;32.10;49.10;;;;;;5114149;27;20028;-76
2021/06/12 06:33:07;;;;;;;4.53;2.67;;;32.30;49.20;;;;;;5116840;28;20393;-76
2021/06/12 06:35:33;;;;;;;4.85;3.00;;;32.30;48.50;;;;;;5116147;28;20024;-76
2021/06/12 06:37:59;;;;;;;3.47;2.72;;;32.30;48.50;;;;;;5116309;28;20031;-75
2021/06/12 06:40:25;;;;;;;5.15;2.95;;;32.20;48.70;;;;;;5115391;28;20027;-80
2021/06/12 06:42:51;;;;;;;5.65;2.90;;;32.20;48.70;;;;;;5116623;28;20080;-75
2021/06/12 06:45:16;;;;;;;3.58;2.63;;;32.30;48.80;;;;;;5116809;28;20024;-75
2021/06/12 06:47:42;;;;;;;4.05;2.63;;;32.40;47.70;;;;;;5116691;28;20102;-75
2021/06/12 06:50:08;;;;;;;3.83;2.55;;;32.40;47.40;;;;;;5116326;28;20027;-76
2021/06/12 06:52:34;;;;;;;4.20;2.70;;;32.30;47.50;;;;;;5115764;28;20099;-76
2021/06/12 06:55:00;;;;;;;3.78;2.72;;;32.20;47.30;;;;;;5116026;28;20102;-76
2021/06/12 06:57:26;;;;;;;4.07;2.40;;;32.20;47.50;;;;;;5116332;28;20107;-76
2021/06/12 06:59:52;;;;;;;3.80;2.63;;;32.40;47.80;;;;;;5114597;28;20020;-76
2021/06/12 07:02:18;;;;;;;3.97;2.67;;;32.50;47.60;;;;;;5116382;28;20027;-75
2021/06/12 07:04:43;;;;;;;4.40;2.65;;;32.40;47.50;;;;;;5116060;28;20041;-76
2021/06/12 07:07:09;;;;;;;3.03;2.28;;;32.50;47.10;;;;;;5114069;28;20030;-75
2021/06/12 07:09:35;;;;;;;3.45;2.33;;;32.50;46.90;;;;;;5113815;28;20059;-76
2021/06/12 07:12:02;;;;;;;3.92;2.83;;;32.40;46.80;;;;;;5116380;28;20093;-75
2021/06/12 07:14:28;;;;;;;3.80;2.50;;;32.50;46.70;;;;;;5116470;28;20436;-76
2021/06/12 07:16:54;;;;;;;3.40;2.50;;;32.60;46.60;;;;;;5116353;28;20130;-76
2021/06/12 07:19:20;;;;;;;4.53;2.80;;;32.60;46.30;;;;;;5116741;28;20530;-74
2021/06/12 07:21:47;;;;;;;2.72;2.13;;;32.90;46.40;;;;;;5116452;28;20024;-75
2021/06/12 07:24:13;;;;;;;5.22;2.42;;;32.90;45.00;;;;;;5096431;28;20038;-75
2021/06/12 07:26:39;;;;;;;5.97;2.30;;;33.00;45.70;;;;;;5116602;28;20027;-75
2021/06/12 07:29:05;;;;;;;3.28;2.08;;;33.10;45.30;;;;;;5098316;28;20024;-75
2021/06/12 07:31:31;;;;;;;3.50;2.55;;;33.30;45.30;;;;;;5107011;28;20355;-76
2021/06/12 07:33:57;;;;;;;4.75;2.40;;;33.30;45.40;;;;;;5114884;28;20470;-75
2021/06/12 07:36:23;;;;;;;2.90;2.30;;;33.40;45.70;;;;;;5112306;28;20031;-74
2021/06/12 07:38:49;;;;;;;3.67;2.28;;;33.30;44.70;;;;;;5123838;28;20032;-74
2021/06/12 07:41:15;;;;;;;4.63;2.35;;;33.40;45.50;;;;;;5124343;27;20038;-75
2021/06/12 07:43:40;;;;;;;3.40;2.42;;;33.30;45.30;;;;;;5119908;28;20489;-75
2021/06/12 07:46:06;;;;;;;3.97;2.22;;;33.30;45.30;;;;;;5114141;28;20020;-74
2021/06/12 07:48:32;;;;;;;3.42;2.35;;;33.50;45.70;;;;;;5114261;28;20432;-74
2021/06/12 07:50:58;;;;;;;4.13;2.30;;;33.70;45.70;;;;;;5114931;28;20051;-74
2021/06/12 07:53:23;;;;;;;4.18;2.20;;;33.80;45.20;;;;;;5115217;28;20049;-74
2021/06/12 07:55:49;;;;;;;2.70;2.17;;;34.10;44.60;;;;;;5115369;28;20023;-75
2021/06/12 07:58:15;;;;;;;2.78;2.05;;;34.40;44.50;;;;;;5114800;28;20027;-75
2021/06/12 08:00:40;;;;;;;3.20;2.22;;;34.80;44.00;;;;;;5113464;28;20110;-75
2021/06/12 08:03:06;;;;;;;3.88;2.03;;;34.70;43.20;;;;;;5114667;28;20047;-75
2021/06/12 08:05:32;;;;;;;2.50;2.05;;;34.90;44.00;;;;;;5114848;28;20042;-76
2021/06/12 08:07:58;;;;;;;3.95;1.98;;;34.70;43.40;;;;;;5115189;28;20131;-75
2021/06/12 08:10:24;;;;;;;3.40;2.20;;;34.60;43.30;;;;;;5114705;28;20020;-76
2021/06/12 08:12:51;;;;;;;2.42;1.70;;;34.50;43.30;;;;;;5113916;28;20106;-75
2021/06/12 08:15:17;;;;;;;4.97;2.17;;;34.50;43.10;;;;;;5113093;28;20077;-75
2021/06/12 08:17:43;;;;;;;2.80;1.80;;;34.60;42.50;;;;;;5114739;28;20032;-75
2021/06/12 08:20:10;;;;;;;3.70;1.80;;;34.50;43.50;;;;;;5114301;28;20028;-76
2021/06/12 08:22:35;;;;;;;3.42;1.85;;;34.60;43.00;;;;;;5113206;28;20045;-76
2021/06/12 08:25:03;;;;;;;2.95;1.92;;;35.00;43.00;;;;;;5114919;28;20032;-75
2021/06/12 08:27:29;;;;;;;3.60;1.90;;;35.10;42.90;;;;;;5114304;28;20032;-75
2021/06/12 08:29:55;;;;;;;3.55;1.77;;;35.10;41.90;;;;;;5114687;28;20026;-75
2021/06/12 08:32:20;;;;;;;2.72;1.70;;;34.90;42.10;;;;;;5114281;28;20019;-76
2021/06/12 08:34:46;;;;;;;2.22;1.80;;;34.70;42.50;;;;;;5114164;28;20377;-76
2021/06/12 08:37:15;;;;;;;2.35;1.67;;;34.70;42.20;;;;;;5113048;28;20035;-76
2021/06/12 08:39:41;;;;;;;4.00;2.00;;;34.80;42.20;;;;;;5113167;28;20023;-75
2021/06/12 08:42:10;;;;;;;2.65;1.98;;;34.80;42.30;;;;;;5114527;28;20108;-75
2021/06/12 08:44:36;;;;;;;2.20;1.60;;;35.00;42.90;;;;;;5112568;28;20035;-75
2021/06/12 08:47:02;;;;;;;2.63;1.67;;;34.90;41.60;;;;;;5113106;28;20031;-75
2021/06/12 08:49:28;;;;;;;2.55;1.55;;;34.60;41.00;;;;;;5114099;28;20055;-76
2021/06/12 08:51:54;;;;;;;3.45;1.85;;;34.60;41.10;;;;;;5114513;28;20413;-76
2021/06/12 08:54:25;;;;;;;2.50;2.03;;;34.50;41.80;;;;;;5114412;28;20028;-76
2021/06/12 08:56:51;;;;;;;6.30;1.73;;;34.60;42.40;;;;;;5112720;28;20032;-76
2021/06/12 08:59:17;;;;;;;3.25;1.90;;;34.60;41.60;;;;;;5114613;28;20076;-76
2021/06/12 09:01:44;;;;;;;3.50;1.73;;;34.70;41.30;;;;;;5114477;28;20103;-75
2021/06/12 09:04:10;;;;;;;3.22;1.70;;;35.10;41.00;;;;;;5115039;28;20019;-75
2021/06/12 09:06:36;;;;;;;3.25;1.73;;;35.10;40.70;;;;;;5114050;28;20039;-74
2021/06/12 09:09:02;;;;;;;3.05;1.73;;;35.00;40.40;;;;;;5114538;28;20031;-75
2021/06/12 09:11:34;;;;;;;2.83;1.80;;;35.10;40.60;;;;;;5115888;28;20028;-76
2021/06/12 09:14:03;;;;;;;3.35;2.17;;;35.10;40.10;;;;;;5086027;28;20024;-76
2021/06/12 09:16:41;;;;;;;5.13;2.13;;;35.30;40.80;;;;;;5119732;28;20486;-74
2021/06/12 09:19:20;;;;;;;2.45;1.80;;;35.10;40.70;;;;;;5107300;28;20470;-76
2021/06/12 09:21:49;;;;;;;2.75;2.10;;;35.00;40.80;;;;;;5119632;28;20027;-85
2021/06/12 09:24:25;;;;;;;2.30;1.88;;;35.00;39.60;;;;;;5104231;28;20019;-75
2021/06/12 09:26:58;;;;;;;2.10;1.75;;;35.10;40.10;;;;;;5112213;28;20036;-75
2021/06/12 09:29:38;;;;;;;2.20;1.80;;;35.10;40.00;;;;;;5100706;28;20373;-76
2021/06/12 09:32:23;;;;;;;3.35;1.65;;;35.10;40.30;;;;;;5111844;28;20046;-76
2021/06/12 09:34:51;;;;;;;3.30;1.80;;;35.00;40.10;;;;;;5111720;28;20023;-75
2021/06/12 09:37:22;;;;;;;2.70;1.90;;;35.20;39.50;;;;;;5111775;28;20062;-76
2021/06/12 09:39:58;;;;;;;2.53;1.60;;;35.40;39.60;;;;;;5111945;28;20063;-76
2021/06/12 09:42:45;;;;;;;1.98;1.60;;;35.70;39.60;;;;;;5113227;28;20050;-75
2021/06/12 09:45:16;;;;;;;2.28;1.60;;;35.80;39.80;;;;;;5113454;28;20068;-75
2021/06/12 09:47:43;;;;;;;3.63;1.58;;;35.60;38.90;;;;;;5110606;28;20023;-76
2021/06/12 09:50:11;;;;;;;2.58;1.50;;;35.30;38.00;;;;;;5112231;28;20047;-75
2021/06/12 09:52:48;;;;;;;1.60;1.45;;;35.20;37.90;;;;;;5112667;28;20064;-75
2021/06/12 09:55:29;;;;;;;3.70;1.80;;;35.10;37.60;;;;;;5112974;28;20051;-75
2021/06/12 09:57:58;;;;;;;3.83;1.90;;;34.90;37.50;;;;;;5113136;28;20063;-76
2021/06/12 10:00:37;;;;;;;3.17;2.05;;;34.60;39.60;;;;;;5098990;28;20047;-79
2021/06/12 10:03:15;;;;;;;2.45;1.80;;;34.60;38.80;;;;;;5113388;28;20039;-77
2021/06/12 10:05:40;;;;;;;5.13;1.95;;;34.70;39.40;;;;;;5099955;28;20023;-78
2021/06/12 10:08:06;;;;;;;3.40;2.08;;;34.20;39.60;;;;;;5113051;28;20088;-74
2021/06/12 10:10:32;;;;;;;5.93;2.15;;;33.70;40.80;;;;;;5112200;28;20389;-75
2021/06/12 10:12:59;;;;;;;3.47;1.98;;;33.70;41.40;;;;;;5113581;28;20031;-76
2021/06/12 10:15:26;;;;;;;5.00;2.60;;;33.80;41.30;;;;;;5112725;28;20039;-75
2021/06/12 10:17:54;;;;;;;3.83;2.10;;;33.50;41.10;;;;;;5113197;28;20027;-75
2021/06/12 10:20:21;;;;;;;2.97;2.20;;;32.80;41.90;;;;;;5113361;28;20035;-76
2021/06/12 10:22:49;;;;;;;4.05;2.35;;;32.30;43.00;;;;;;5111595;28;20028;-75
2021/06/12 10:25:17;;;;;;;2.63;2.20;;;32.50;43.30;;;;;;5112545;28;20015;-76
2021/06/12 10:27:43;;;;;;;4.38;2.45;;;32.80;43.00;;;;;;5113250;28;20053;-76
2021/06/12 10:30:11;;;;;;;4.50;2.38;;;33.40;43.00;;;;;;5113230;28;20028;-76
2021/06/12 10:32:42;;;;;;;3.00;2.17;;;33.80;43.30;;;;;;5112896;28;20102;-76
2021/06/12 10:35:09;;;;;;;4.15;2.30;;;34.00;41.80;;;;;;5112562;28;20074;-77
2021/06/12 10:37:54;;;;;;;2.55;2.08;;;34.10;41.70;;;;;;5111520;28;20031;-77
2021/06/12 10:40:56;;;;;;;4.45;2.90;;;33.70;41.70;;;;;;5113185;28;20355;-76
2021/06/12 10:43:27;;;;;;;3.80;2.40;;;33.00;42.60;;;;;;5103015;28;20390;-76
2021/06/12 10:46:04;;;;;;;4.65;2.50;;;33.20;43.00;;;;;;5113636;28;20027;-76
2021/06/12 10:48:52;;;;;;;3.42;2.60;;;33.60;41.90;;;;;;5114012;28;20032;-75
2021/06/12 10:51:27;;;;;;;3.33;2.53;;;33.20;41.70;;;;;;5114060;28;20028;-76
2021/06/12 10:54:28;;;;;;;4.30;2.50;;;33.00;42.50;;;;;;5114385;28;20027;-75
2021/06/12 10:57:10;;;;;;;3.13;2.13;;;33.30;42.30;;;;;;5086135;28;20043;-77
2021/06/12 10:59:36;;;;;;;3.10;1.90;;;33.40;42.60;;;;;;5117057;28;20032;-76
2021/06/12 11:02:15;;;;;;;2.72;2.03;;;33.20;41.10;;;;;;5123905;28;20034;-76
2021/06/12 11:05:06;;;;;;;4.07;1.85;;;32.60;41.00;;;;;;5127613;28;20031;-76
2021/06/12 11:07:41;;;;;;;4.65;3.10;;;32.20;41.30;;;;;;5112364;28;20097;-76
2021/06/12 11:10:12;;;;;;;3.13;2.40;;;31.80;42.80;;;;;;5116136;28;20046;-76
2021/06/12 11:12:39;;;;;;;4.15;1.88;;;31.50;42.90;;;;;;5115912;28;20016;-76
2021/06/12 11:15:07;;;;;;;3.70;1.92;;;31.10;43.00;;;;;;5115877;28;20047;-76
2021/06/12 11:17:33;;;;;;;3.97;2.03;;;30.60;42.60;;;;;;5115496;27;20071;-75
2021/06/12 11:19:58;;;;;;;3.60;2.00;;;30.20;43.30;;;;;;5114829;28;20057;-75
2021/06/12 11:22:30;;;;;;;3.67;2.03;;;30.10;44.00;;;;;;5115357;28;20148;-76
2021/06/12 11:25:08;;;;;;;3.55;2.03;;;29.90;45.00;;;;;;5115876;28;20027;-76
2021/06/12 11:27:39;;;;;;;2.67;2.00;;;29.70;45.60;;;;;;5115254;28;20503;-77
2021/06/12 11:30:14;;;;;;;3.38;2.10;;;29.50;45.60;;;;;;5114493;28;20027;-76
2021/06/12 11:32:43;;;;;;;5.07;1.95;;;29.40;46.30;;;;;;5114869;28;20476;-75
2021/06/12 11:35:10;;;;;;;3.10;2.33;;;29.30;46.80;;;;;;5114452;28;20031;-75
2021/06/12 11:37:36;;;;;;;2.78;1.88;;;29.10;46.20;;;;;;5115207;28;20327;-76
2021/06/12 11:40:05;;;;;;;3.55;2.40;;;28.90;46.10;;;;;;5114986;27;20031;-76
2021/06/12 11:42:46;;;;;;;3.17;2.33;;;28.70;46.00;;;;;;5115290;28;20477;-75
2021/06/12 11:45:24;;;;;;;3.05;2.10;;;28.40;46.10;;;;;;5115572;28;20048;-74
2021/06/12 11:47:51;;;;;;;3.25;2.00;;;28.30;47.20;;;;;;5115292;28;20024;-75
2021/06/12 11:50:28;;;;;;;4.72;2.28;;;28.20;47.30;;;;;;5114075;28;20028;-75
2021/06/12 11:52:55;;;;;;;4.53;2.28;;;28.20;47.30;;;;;;5114697;28;20023;-75
2021/06/12 11:55:23;;;;;;;2.63;2.10;;;28.00;47.70;;;;;;5114660;28;20034;-74
2021/06/12 11:57:51;;;;;;;3.03;2.15;;;28.00;48.10;;;;;;5115601;28;20028;-74
2021/06/12 12:00:22;;;;;;;4.63;2.00;;;28.00;48.80;;;;;;5113920;28;20397;-75
2021/06/12 12:03:14;;;;;;;3.38;2.33;;;28.00;48.80;;;;;;5114929;28;20047;-74
2021/06/12 12:05:51;;;;;;;4.07;2.80;;;27.90;48.20;;;;;;5101388;28;20026;-74
2021/06/12 12:08:18;;;;;;;3.20;2.20;;;27.80;48.80;;;;;;5114857;28;20382;-74
2021/06/12 12:10:48;;;;;;;3.72;2.00;;;27.80;48.30;;;;;;5112996;28;20450;-74
2021/06/12 12:13:37;;;;;;;3.60;2.40;;;27.70;47.90;;;;;;5113789;28;20032;-74
2021/06/12 12:16:20;;;;;;;5.22;2.22;;;27.80;48.00;;;;;;5104796;28;20051;-74
2021/06/12 12:18:54;;;;;;;3.58;2.45;;;27.80;48.30;;;;;;5113520;28;20386;-74
2021/06/12 12:21:36;;;;;;;3.25;2.33;;;27.80;48.10;;;;;;5114189;28;20031;-74
2021/06/12 12:24:04;;;;;;;4.10;2.75;;;27.80;47.90;;;;;;5113290;28;20092;-74
2021/06/12 12:26:30;;;;;;;4.63;2.33;;;27.80;47.70;;;;;;5115185;28;20024;-75
2021/06/12 12:29:14;;;;;;;4.72;3.55;;;27.80;47.90;;;;;;5098318;28;20031;-74
2021/06/12 12:31:45;;;;;;;4.13;2.47;;;27.80;48.00;;;;;;5118205;27;20465;-75
2021/06/12 12:34:12;;;;;;;3.10;2.25;;;27.80;47.90;;;;;;5116931;27;20028;-74
2021/06/12 12:36:46;;;;;;;8.38;2.45;;;27.80;47.90;;;;;;5116641;28;20024;-72
2021/06/12 12:39:12;;;;;;;4.07;2.40;;;27.70;48.00;;;;;;5133382;28;20066;-73
2021/06/12 12:41:38;;;;;;;4.20;2.50;;;27.60;48.00;;;;;;5130961;28;20465;-75
2021/06/12 12:44:06;;;;;;;3.45;2.55;;;27.50;48.10;;;;;;5132883;28;20024;-74
2021/06/12 12:46:33;;;;;;;3.80;2.50;;;27.40;48.30;;;;;;5127619;28;20042;-74
2021/06/12 12:48:59;;;;;;;3.25;2.50;;;27.40;48.40;;;;;;5112042;28;20053;-78
2021/06/12 12:51:26;;;;;;;3.38;2.33;;;27.30;48.50;;;;;;5100141;28;20016;-75
2021/06/12 12:53:52;;;;;;;5.07;2.30;;;27.30;48.70;;;;;;5113582;28;20058;-75
2021/06/12 12:56:18;;;;;;;3.88;2.92;;;27.20;48.50;;;;;;5113557;27;20476;-76
2021/06/12 12:58:50;;;;;;;4.57;2.47;;;27.20;48.80;;;;;;5113537;28;20079;-75
2021/06/12 13:01:16;;;;;;;3.03;2.30;;;27.20;49.00;;;;;;5114174;28;20027;-76